createdAt,value
2022-08-26T00:00:25.170Z,46.37
2022-08-26T00:00:57.542Z,46.46
2022-08-26T00:01:32.733Z,46.60
2022-08-26T00:02:07.569Z,46.56
2022-08-26T00:02:40.602Z,46.38
2022-08-26T00:03:19.721Z,46.16
2022-08-26T00:03:52.114Z,46.39
2022-08-26T00:04:26.006Z,46.37
2022-08-26T00:05:01.397Z,46.31
2022-08-26T00:05:34.242Z,46.26
2022-08-26T00:06:07.363Z,46.23
2022-08-26T00:06:46.177Z,46.21
2022-08-26T00:07:18.988Z,46.32
2022-08-26T00:07:51.522Z,46.33
2022-08-26T00:08:26.558Z,46.24
2022-08-26T00:08:59.395Z,46.37
2022-08-26T00:09:37.289Z,46.57
2022-08-26T00:10:12.536Z,46.35
2022-08-26T00:10:45.022Z,46.44
2022-08-26T00:11:26.984Z,46.03
2022-08-26T00:11:59.627Z,46.31
2022-08-26T00:12:36.157Z,46.40
2022-08-26T00:13:10.737Z,46.41
2022-08-26T00:13:47.853Z,46.26
2022-08-26T00:14:24.179Z,46.12
2022-08-26T00:15:00.926Z,46.45
2022-08-26T00:15:35.961Z,46.57
2022-08-26T00:16:09.255Z,46.02
2022-08-26T00:16:48.199Z,46.14
2022-08-26T00:17:24.222Z,46.13
2022-08-26T00:17:59.154Z,46.58
2022-08-26T00:18:40.724Z,46.35
2022-08-26T00:19:13.192Z,46.37
2022-08-26T00:19:45.581Z,46.33
2022-08-26T00:20:26.395Z,46.41
2022-08-26T00:20:59.278Z,46.55
2022-08-26T00:21:38.645Z,46.56
2022-08-26T00:22:14.109Z,46.26
2022-08-26T00:22:54.351Z,46.21
2022-08-26T00:23:27.110Z,46.39
2022-08-26T00:24:03.902Z,46.60
2022-08-26T00:24:36.239Z,46.25
2022-08-26T00:25:10.202Z,46.01
2022-08-26T00:25:45.166Z,46.60
2022-08-26T00:26:17.742Z,46.25
2022-08-26T00:26:50.713Z,46.53
2022-08-26T00:27:26.999Z,46.20
2022-08-26T00:28:01.248Z,46.09
2022-08-26T00:28:34.302Z,46.25
2022-08-26T00:29:09.415Z,45.83
2022-08-26T00:29:41.887Z,46.14
2022-08-26T00:30:17.023Z,46.26
2022-08-26T00:30:57.766Z,46.27
2022-08-26T00:31:31.190Z,46.14
2022-08-26T00:32:04.353Z,46.19
2022-08-26T00:32:39.482Z,46.02
2022-08-26T00:33:11.989Z,46.00
2022-08-26T00:33:47.009Z,46.15
2022-08-26T00:34:21.945Z,46.17
2022-08-26T00:34:54.584Z,46.20
2022-08-26T00:35:28.281Z,46.12
2022-08-26T00:36:03.305Z,46.10
2022-08-26T00:36:36.779Z,45.84
2022-08-26T00:37:11.632Z,45.95
2022-08-26T00:37:49.690Z,46.00
2022-08-26T00:38:22.856Z,46.00
2022-08-26T00:38:55.331Z,46.07
2022-08-26T00:39:30.295Z,45.94
2022-08-26T00:40:05.390Z,46.03
2022-08-26T00:40:41.206Z,46.22
2022-08-26T00:41:17.094Z,46.00
2022-08-26T00:41:50.594Z,46.28
2022-08-26T00:42:22.932Z,46.20
2022-08-26T00:42:58.110Z,45.82
2022-08-26T00:43:33.395Z,46.07
2022-08-26T00:44:20.181Z,45.90
2022-08-26T00:44:55.147Z,46.09
2022-08-26T00:45:27.725Z,46.14
2022-08-26T00:46:04.582Z,46.12
2022-08-26T00:46:46.469Z,45.93
2022-08-26T00:47:24.145Z,45.90
2022-08-26T00:47:59.228Z,46.18
2022-08-26T00:48:36.162Z,45.88
2022-08-26T00:49:16.487Z,46.14
2022-08-26T00:49:49.455Z,46.06
2022-08-26T00:50:28.798Z,46.18
2022-08-26T00:51:05.327Z,46.07
2022-08-26T00:51:43.075Z,46.07
2022-08-26T00:52:20.114Z,46.00
2022-08-26T00:52:54.218Z,45.97
2022-08-26T00:53:29.645Z,46.00
2022-08-26T00:54:07.413Z,45.82
2022-08-26T00:54:47.098Z,46.08
2022-08-26T00:55:24.002Z,45.98
2022-08-26T00:56:04.563Z,45.93
2022-08-26T00:56:43.846Z,46.07
2022-08-26T00:57:20.241Z,45.96
2022-08-26T00:57:55.351Z,46.05
2022-08-26T00:58:29.358Z,46.05
2022-08-26T00:59:04.288Z,45.93
2022-08-26T00:59:39.629Z,46.31
2022-08-26T01:00:16.904Z,45.89
2022-08-26T01:00:51.997Z,46.24
2022-08-26T01:01:26.281Z,45.88
2022-08-26T01:01:58.700Z,45.90
2022-08-26T01:02:33.753Z,46.24
2022-08-26T01:03:07.572Z,46.07
2022-08-26T01:03:46.012Z,46.25
2022-08-26T01:04:26.253Z,45.76
2022-08-26T01:05:00.986Z,46.10
2022-08-26T01:05:35.830Z,46.08
2022-08-26T01:06:13.145Z,46.13
2022-08-26T01:06:45.778Z,45.96
2022-08-26T01:07:18.095Z,46.09
2022-08-26T01:07:54.527Z,46.12
2022-08-26T01:08:27.268Z,46.00
2022-08-26T01:09:00.191Z,46.18
2022-08-26T01:09:35.527Z,46.16
2022-08-26T01:10:12.010Z,46.00
2022-08-26T01:10:44.401Z,46.12
2022-08-26T01:11:19.616Z,46.13
2022-08-26T01:11:54.385Z,45.96
2022-08-26T01:12:28.655Z,46.35
2022-08-26T01:13:06.536Z,45.91
2022-08-26T01:13:39.806Z,46.45
2022-08-26T01:14:15.106Z,46.16
2022-08-26T01:14:47.818Z,46.09
2022-08-26T01:15:25.625Z,46.21
2022-08-26T01:16:04.281Z,46.09
2022-08-26T01:16:37.148Z,46.07
2022-08-26T01:17:10.044Z,46.31
2022-08-26T01:17:45.038Z,46.22
2022-08-26T01:18:17.753Z,46.05
2022-08-26T01:18:50.277Z,46.20
2022-08-26T01:19:31.127Z,46.31
2022-08-26T01:20:08.757Z,46.03
2022-08-26T01:20:46.845Z,46.14
2022-08-26T01:21:28.210Z,45.97
2022-08-26T01:22:06.997Z,46.18
2022-08-26T01:22:49.633Z,46.07
2022-08-26T01:23:29.669Z,46.05
2022-08-26T01:24:02.212Z,45.91
2022-08-26T01:24:34.968Z,46.05
2022-08-26T01:25:11.439Z,46.37
2022-08-26T01:25:46.833Z,46.22
2022-08-26T01:26:24.440Z,46.15
2022-08-26T01:26:59.645Z,45.87
2022-08-26T01:27:33.545Z,46.11
2022-08-26T01:28:12.281Z,46.58
2022-08-26T01:28:45.147Z,46.17
2022-08-26T01:29:23.338Z,46.26
2022-08-26T01:29:58.255Z,46.11
2022-08-26T01:30:32.610Z,46.21
2022-08-26T01:31:09.037Z,46.21
2022-08-26T01:31:49.157Z,46.10
2022-08-26T01:32:23.252Z,46.19
2022-08-26T01:32:56.833Z,46.07
2022-08-26T01:33:42.422Z,46.31
2022-08-26T01:34:18.332Z,46.19
2022-08-26T01:34:52.860Z,46.06
2022-08-26T01:35:28.476Z,45.97
2022-08-26T01:36:01.542Z,45.97
2022-08-26T01:36:33.917Z,46.19
2022-08-26T01:37:15.467Z,46.42
2022-08-26T01:37:54.509Z,46.30
2022-08-26T01:38:27.916Z,46.06
2022-08-26T01:39:07.340Z,45.81
2022-08-26T01:39:40.170Z,46.22
2022-08-26T01:40:18.836Z,46.17
2022-08-26T01:40:53.899Z,46.15
2022-08-26T01:41:29.120Z,46.10
2022-08-26T01:42:03.167Z,46.18
2022-08-26T01:42:38.401Z,46.16
2022-08-26T01:43:14.882Z,46.06
2022-08-26T01:43:49.622Z,46.03
2022-08-26T01:44:26.456Z,45.92
2022-08-26T01:45:01.948Z,46.02
2022-08-26T01:45:35.439Z,46.06
2022-08-26T01:46:11.666Z,46.50
2022-08-26T01:46:44.168Z,46.05
2022-08-26T01:47:20.409Z,46.03
2022-08-26T01:47:57.424Z,46.26
2022-08-26T01:48:32.114Z,46.13
2022-08-26T01:49:07.690Z,46.10
2022-08-26T01:49:43.445Z,45.85
2022-08-26T01:50:27.802Z,46.31
2022-08-26T01:51:06.773Z,46.09
2022-08-26T01:51:39.837Z,46.21
2022-08-26T01:52:13.395Z,46.34
2022-08-26T01:52:49.951Z,46.06
2022-08-26T01:53:29.318Z,46.17
2022-08-26T01:54:04.694Z,46.33
2022-08-26T01:54:37.301Z,45.85
2022-08-26T01:55:12.187Z,46.21
2022-08-26T01:55:49.981Z,46.36
2022-08-26T01:56:23.648Z,46.39
2022-08-26T01:56:56.175Z,46.04
2022-08-26T01:57:32.011Z,46.07
2022-08-26T01:58:10.761Z,45.96
2022-08-26T01:58:50.941Z,46.07
2022-08-26T01:59:24.755Z,46.09
2022-08-26T01:59:59.539Z,46.12
2022-08-26T02:00:34.581Z,46.07
2022-08-26T02:01:07.134Z,46.07
2022-08-26T02:01:44.775Z,46.08
2022-08-26T02:02:17.273Z,46.05
2022-08-26T02:03:12.566Z,45.93
2022-08-26T02:03:54.567Z,45.96
2022-08-26T02:04:29.721Z,46.28
2022-08-26T02:05:04.854Z,45.99
2022-08-26T02:05:37.358Z,45.68
2022-08-26T02:06:12.289Z,46.15
2022-08-26T02:06:45.506Z,45.86
2022-08-26T02:07:19.873Z,46.01
2022-08-26T02:07:56.510Z,45.78
2022-08-26T02:08:36.058Z,45.91
2022-08-26T02:09:11.685Z,45.94
2022-08-26T02:09:44.362Z,46.04
2022-08-26T02:10:16.848Z,46.14
2022-08-26T02:10:55.156Z,46.15
2022-08-26T02:11:27.617Z,45.76
2022-08-26T02:12:00.292Z,45.90
2022-08-26T02:12:37.200Z,45.71
2022-08-26T02:13:11.278Z,46.04
2022-08-26T02:13:52.642Z,46.07
2022-08-26T02:14:30.321Z,45.60
2022-08-26T02:15:06.173Z,45.86
2022-08-26T02:15:44.269Z,45.90
2022-08-26T02:16:19.034Z,45.78
2022-08-26T02:16:53.330Z,46.17
2022-08-26T02:17:32.737Z,45.86
2022-08-26T02:18:05.869Z,46.00
2022-08-26T02:18:42.581Z,45.62
2022-08-26T02:19:17.570Z,46.13
2022-08-26T02:19:53.476Z,45.86
2022-08-26T02:20:26.591Z,45.80
2022-08-26T02:20:59.207Z,45.76
2022-08-26T02:21:34.710Z,45.88
2022-08-26T02:22:11.791Z,45.74
2022-08-26T02:22:45.229Z,45.94
2022-08-26T02:23:20.292Z,45.83
2022-08-26T02:24:09.245Z,45.82
2022-08-26T02:24:52.864Z,46.11
2022-08-26T02:25:27.709Z,45.81
2022-08-26T02:26:04.565Z,45.40
2022-08-26T02:26:39.622Z,45.63
2022-08-26T02:27:12.057Z,45.90
2022-08-26T02:27:46.713Z,45.76
2022-08-26T02:28:21.741Z,45.68
2022-08-26T02:29:04.061Z,45.39
2022-08-26T02:29:38.431Z,45.53
2022-08-26T02:30:17.205Z,45.66
2022-08-26T02:30:49.696Z,45.86
2022-08-26T02:31:25.986Z,45.69
2022-08-26T02:31:58.622Z,45.81
2022-08-26T02:32:31.118Z,45.42
2022-08-26T02:33:04.040Z,45.64
2022-08-26T02:33:42.891Z,45.88
2022-08-26T02:34:17.938Z,45.39
2022-08-26T02:34:50.375Z,45.83
2022-08-26T02:35:26.449Z,45.75
2022-08-26T02:35:58.857Z,45.90
2022-08-26T02:36:31.161Z,45.75
2022-08-26T02:37:09.146Z,45.76
2022-08-26T02:37:42.013Z,45.86
2022-08-26T02:38:14.466Z,45.76
2022-08-26T02:38:49.626Z,45.99
2022-08-26T02:39:27.023Z,45.42
2022-08-26T02:39:59.505Z,45.71
2022-08-26T02:40:41.060Z,45.68
2022-08-26T02:41:14.195Z,45.67
2022-08-26T02:41:47.034Z,45.80
2022-08-26T02:42:22.897Z,45.67
2022-08-26T02:42:56.041Z,45.79
2022-08-26T02:43:31.268Z,45.70
2022-08-26T02:44:07.358Z,45.59
2022-08-26T02:44:39.926Z,46.05
2022-08-26T02:45:13.121Z,45.86
2022-08-26T02:45:51.870Z,45.64
2022-08-26T02:46:29.856Z,45.58
2022-08-26T02:47:02.595Z,45.43
2022-08-26T02:47:37.751Z,46.13
2022-08-26T02:48:14.385Z,45.62
2022-08-26T02:48:49.307Z,45.88
2022-08-26T02:49:22.424Z,45.84
2022-08-26T02:49:54.766Z,45.78
2022-08-26T02:50:30.178Z,45.84
2022-08-26T02:51:02.652Z,45.83
2022-08-26T02:51:35.037Z,45.86
2022-08-26T02:52:10.529Z,45.88
2022-08-26T02:52:43.070Z,45.99
2022-08-26T02:53:16.653Z,45.57
2022-08-26T02:53:59.787Z,45.76
2022-08-26T02:54:36.446Z,45.59
2022-08-26T02:55:09.034Z,45.45
2022-08-26T02:55:44.388Z,45.78
2022-08-26T02:56:16.714Z,45.69
2022-08-26T02:56:49.522Z,45.66
2022-08-26T02:57:24.667Z,45.72
2022-08-26T02:57:57.091Z,46.02
2022-08-26T02:58:32.007Z,45.61
2022-08-26T02:59:04.423Z,45.88
2022-08-26T02:59:39.408Z,45.31
2022-08-26T03:00:14.773Z,45.36
2022-08-26T03:00:53.028Z,45.64
2022-08-26T03:01:27.845Z,45.60
2022-08-26T03:02:00.590Z,45.55
2022-08-26T03:02:35.597Z,45.74
2022-08-26T03:03:08.338Z,45.72
2022-08-26T03:03:41.440Z,45.33
2022-08-26T03:04:16.517Z,45.45
2022-08-26T03:04:58.110Z,45.81
2022-08-26T03:05:35.499Z,45.56
2022-08-26T03:06:12.454Z,45.66
2022-08-26T03:06:52.692Z,45.74
2022-08-26T03:07:27.116Z,45.82
2022-08-26T03:08:05.917Z,45.57
2022-08-26T03:08:41.705Z,45.81
2022-08-26T03:09:18.852Z,45.83
2022-08-26T03:09:58.707Z,45.36
2022-08-26T03:10:33.298Z,45.24
2022-08-26T03:11:06.143Z,45.12
2022-08-26T03:11:43.369Z,45.66
2022-08-26T03:12:16.158Z,45.23
2022-08-26T03:12:52.257Z,45.35
2022-08-26T03:13:27.381Z,45.25
2022-08-26T03:14:00.702Z,45.31
2022-08-26T03:14:42.018Z,45.30
2022-08-26T03:15:17.869Z,45.43
2022-08-26T03:15:50.925Z,45.34
2022-08-26T03:16:32.651Z,45.49
2022-08-26T03:17:08.027Z,45.15
2022-08-26T03:17:42.566Z,45.52
2022-08-26T03:18:18.697Z,45.47
2022-08-26T03:18:55.105Z,45.45
2022-08-26T03:19:32.237Z,45.64
2022-08-26T03:20:11.585Z,45.78
2022-08-26T03:20:46.626Z,45.51
2022-08-26T03:21:19.400Z,45.08
2022-08-26T03:21:57.841Z,45.62
2022-08-26T03:22:30.570Z,45.42
2022-08-26T03:23:05.729Z,45.21
2022-08-26T03:23:40.680Z,45.58
2022-08-26T03:24:13.606Z,45.31
2022-08-26T03:24:48.606Z,45.05
2022-08-26T03:25:27.387Z,45.50
2022-08-26T03:25:59.748Z,45.15
2022-08-26T03:26:34.946Z,45.36
2022-08-26T03:27:09.119Z,45.23
2022-08-26T03:27:41.509Z,45.23
2022-08-26T03:28:20.502Z,45.14
2022-08-26T03:29:10.381Z,45.23
2022-08-26T03:29:57.734Z,45.15
2022-08-26T03:30:45.475Z,45.24
2022-08-26T03:31:21.048Z,45.28
2022-08-26T03:31:57.258Z,45.24
2022-08-26T03:32:33.043Z,45.17
2022-08-26T03:33:05.794Z,45.22
2022-08-26T03:33:40.910Z,45.08
2022-08-26T03:34:13.305Z,45.35
2022-08-26T03:34:49.863Z,45.04
2022-08-26T03:35:29.569Z,45.37
2022-08-26T03:36:04.126Z,45.16
2022-08-26T03:36:39.354Z,45.20
2022-08-26T03:37:14.239Z,45.18
2022-08-26T03:37:47.502Z,45.25
2022-08-26T03:38:26.256Z,45.23
2022-08-26T03:38:59.085Z,45.18
2022-08-26T03:39:32.650Z,44.89
2022-08-26T03:40:11.738Z,45.27
2022-08-26T03:40:47.297Z,44.88
2022-08-26T03:41:21.428Z,45.08
2022-08-26T03:41:57.662Z,45.12
2022-08-26T03:42:29.947Z,45.48
2022-08-26T03:43:03.364Z,45.05
2022-08-26T03:43:40.825Z,45.14
2022-08-26T03:44:13.285Z,45.16
2022-08-26T03:44:48.877Z,44.94
2022-08-26T03:45:28.914Z,45.08
2022-08-26T03:46:05.107Z,45.27
2022-08-26T03:46:38.764Z,44.92
2022-08-26T03:47:16.559Z,45.21
2022-08-26T03:47:48.920Z,45.20
2022-08-26T03:48:21.610Z,44.97
2022-08-26T03:48:56.617Z,45.36
2022-08-26T03:49:29.100Z,44.97
2022-08-26T03:50:03.321Z,44.94
2022-08-26T03:50:43.438Z,45.19
2022-08-26T03:51:21.383Z,44.92
2022-08-26T03:51:53.786Z,44.75
2022-08-26T03:52:33.633Z,44.60
2022-08-26T03:53:07.500Z,44.72
2022-08-26T03:53:48.371Z,44.92
2022-08-26T03:54:20.722Z,45.04
2022-08-26T03:54:55.337Z,45.19
2022-08-26T03:55:34.792Z,45.15
2022-08-26T03:56:10.240Z,45.08
2022-08-26T03:56:42.762Z,45.13
2022-08-26T03:57:21.430Z,45.20
2022-08-26T03:57:55.146Z,45.11
2022-08-26T03:58:27.922Z,44.97
2022-08-26T03:59:07.632Z,45.09
2022-08-26T03:59:41.298Z,44.88
2022-08-26T04:00:18.228Z,44.86
2022-08-26T04:00:55.447Z,45.05
2022-08-26T04:01:28.547Z,45.10
2022-08-26T04:02:01.539Z,44.92
2022-08-26T04:02:37.272Z,44.71
2022-08-26T04:03:14.638Z,44.84
2022-08-26T04:04:00.097Z,44.60
2022-08-26T04:04:35.663Z,44.79
2022-08-26T04:05:08.822Z,44.96
2022-08-26T04:05:41.129Z,44.83
2022-08-26T04:06:16.342Z,44.86
2022-08-26T04:06:49.410Z,44.92
2022-08-26T04:07:26.126Z,44.79
2022-08-26T04:07:58.497Z,44.81
2022-08-26T04:08:31.362Z,44.81
2022-08-26T04:09:08.242Z,45.08
2022-08-26T04:09:40.766Z,44.55
2022-08-26T04:10:28.455Z,44.99
2022-08-26T04:11:04.462Z,44.64
2022-08-26T04:11:40.233Z,44.92
2022-08-26T04:12:15.267Z,44.85
2022-08-26T04:12:47.807Z,44.73
2022-08-26T04:13:20.146Z,44.67
2022-08-26T04:13:55.171Z,44.84
2022-08-26T04:14:28.314Z,44.73
2022-08-26T04:15:00.606Z,44.72
2022-08-26T04:15:39.401Z,44.94
2022-08-26T04:16:12.958Z,45.01
2022-08-26T04:16:48.791Z,44.80
2022-08-26T04:17:25.837Z,44.95
2022-08-26T04:17:58.413Z,45.01
2022-08-26T04:18:37.216Z,44.94
2022-08-26T04:19:10.621Z,44.75
2022-08-26T04:19:47.063Z,44.67
2022-08-26T04:20:19.691Z,44.78
2022-08-26T04:20:52.247Z,44.65
2022-08-26T04:21:27.516Z,44.87
2022-08-26T04:22:00.541Z,44.88
2022-08-26T04:22:34.049Z,44.73
2022-08-26T04:23:12.019Z,44.77
2022-08-26T04:23:48.086Z,44.61
2022-08-26T04:24:27.070Z,44.88
2022-08-26T04:25:00.997Z,44.93
2022-08-26T04:25:33.449Z,44.79
2022-08-26T04:26:08.793Z,44.84
2022-08-26T04:26:49.254Z,44.88
2022-08-26T04:27:24.198Z,44.89
2022-08-26T04:27:57.758Z,44.78
2022-08-26T04:28:31.904Z,44.53
2022-08-26T04:29:13.989Z,44.76
2022-08-26T04:29:47.753Z,44.72
2022-08-26T04:30:21.273Z,44.60
2022-08-26T04:30:56.414Z,44.50
2022-08-26T04:31:28.905Z,44.73
2022-08-26T04:32:07.016Z,44.65
2022-08-26T04:32:43.142Z,44.91
2022-08-26T04:33:15.834Z,44.60
2022-08-26T04:33:52.795Z,44.48
2022-08-26T04:34:28.713Z,44.28
2022-08-26T04:35:01.917Z,44.55
2022-08-26T04:35:37.232Z,44.24
2022-08-26T04:36:13.411Z,44.53
2022-08-26T04:36:45.767Z,44.25
2022-08-26T04:37:20.695Z,44.50
2022-08-26T04:37:55.525Z,44.42
2022-08-26T04:38:28.093Z,44.45
2022-08-26T04:39:04.910Z,44.19
2022-08-26T04:39:37.349Z,44.33
2022-08-26T04:40:10.478Z,44.48
2022-08-26T04:40:46.994Z,44.52
2022-08-26T04:41:19.910Z,44.19
2022-08-26T04:41:58.040Z,44.28
2022-08-26T04:42:32.217Z,44.31
2022-08-26T04:43:05.948Z,44.42
2022-08-26T04:43:42.265Z,43.84
2022-08-26T04:44:15.083Z,44.14
2022-08-26T04:44:50.082Z,44.50
2022-08-26T04:45:23.036Z,43.94
2022-08-26T04:45:55.503Z,44.10
2022-08-26T04:46:31.700Z,44.12
2022-08-26T04:47:04.852Z,44.06
2022-08-26T04:47:37.183Z,44.07
2022-08-26T04:48:13.017Z,44.05
2022-08-26T04:48:51.810Z,44.23
2022-08-26T04:49:27.658Z,43.75
2022-08-26T04:50:00.149Z,44.14
2022-08-26T04:50:34.413Z,44.25
2022-08-26T04:51:06.979Z,44.12
2022-08-26T04:51:42.387Z,44.22
2022-08-26T04:52:16.333Z,44.01
2022-08-26T04:52:48.629Z,44.38
2022-08-26T04:53:23.537Z,44.14
2022-08-26T04:53:57.926Z,44.18
2022-08-26T04:54:30.523Z,43.76
2022-08-26T04:55:08.431Z,43.97
2022-08-26T04:55:42.852Z,44.12
2022-08-26T04:56:18.114Z,44.04
2022-08-26T04:56:53.124Z,44.02
2022-08-26T04:57:28.093Z,44.13
2022-08-26T04:58:00.466Z,44.31
2022-08-26T04:58:35.712Z,44.31
2022-08-26T04:59:17.078Z,44.10
2022-08-26T04:59:50.350Z,44.56
2022-08-26T05:00:25.631Z,44.17
2022-08-26T05:00:58.715Z,44.41
2022-08-26T05:01:31.700Z,44.47
2022-08-26T05:02:07.316Z,44.70
2022-08-26T05:02:41.010Z,44.60
2022-08-26T05:03:15.262Z,44.60
2022-08-26T05:03:50.934Z,44.39
2022-08-26T05:04:23.734Z,44.47
2022-08-26T05:04:56.066Z,44.67
2022-08-26T05:05:28.417Z,44.79
2022-08-26T05:06:07.349Z,44.96
2022-08-26T05:06:41.835Z,44.87
2022-08-26T05:07:17.671Z,44.80
2022-08-26T05:07:50.056Z,44.58
2022-08-26T05:08:23.430Z,44.18
2022-08-26T05:08:58.381Z,44.32
2022-08-26T05:09:30.882Z,44.35
2022-08-26T05:10:03.877Z,44.12
2022-08-26T05:10:44.658Z,44.06
2022-08-26T05:11:17.365Z,43.88
2022-08-26T05:11:52.049Z,43.88
2022-08-26T05:12:27.922Z,43.78
2022-08-26T05:13:03.817Z,43.93
2022-08-26T05:13:43.326Z,43.55
2022-08-26T05:14:18.891Z,43.50
2022-08-26T05:14:51.238Z,43.50
2022-08-26T05:15:24.206Z,43.22
2022-08-26T05:16:01.178Z,43.83
2022-08-26T05:16:33.726Z,43.13
2022-08-26T05:17:06.165Z,43.36
2022-08-26T05:17:41.737Z,43.13
2022-08-26T05:18:15.213Z,43.37
2022-08-26T05:18:48.599Z,43.50
2022-08-26T05:19:23.791Z,43.18
2022-08-26T05:19:56.211Z,43.71
2022-08-26T05:20:28.942Z,43.25
2022-08-26T05:21:05.245Z,43.49
2022-08-26T05:21:38.868Z,43.18
2022-08-26T05:22:13.903Z,43.39
2022-08-26T05:22:47.282Z,43.23
2022-08-26T05:23:22.960Z,43.05
2022-08-26T05:23:58.600Z,42.96
2022-08-26T05:24:31.187Z,43.18
2022-08-26T05:25:03.801Z,43.11
2022-08-26T05:25:41.582Z,43.16
2022-08-26T05:26:14.467Z,43.32
2022-08-26T05:26:51.618Z,42.87
2022-08-26T05:27:23.970Z,43.25
2022-08-26T05:27:56.311Z,43.10
2022-08-26T05:28:33.841Z,43.11
2022-08-26T05:29:07.729Z,43.05
2022-08-26T05:29:40.251Z,43.01
2022-08-26T05:30:15.886Z,43.01
2022-08-26T05:30:48.808Z,42.89
2022-08-26T05:31:23.951Z,42.87
2022-08-26T05:31:58.981Z,42.87
2022-08-26T05:32:32.022Z,43.15
2022-08-26T05:33:05.213Z,43.23
2022-08-26T05:33:41.345Z,42.94
2022-08-26T05:34:13.810Z,42.95
2022-08-26T05:34:46.527Z,42.99
2022-08-26T05:35:21.690Z,42.79
2022-08-26T05:35:54.802Z,43.11
2022-08-26T05:36:32.391Z,43.08
2022-08-26T05:37:06.269Z,42.88
2022-08-26T05:37:38.579Z,43.10
2022-08-26T05:38:16.030Z,43.10
2022-08-26T05:38:48.854Z,43.23
2022-08-26T05:39:24.738Z,42.94
2022-08-26T05:39:57.139Z,42.87
2022-08-26T05:40:34.628Z,42.85
2022-08-26T05:41:17.257Z,42.79
2022-08-26T05:41:49.871Z,42.56
2022-08-26T05:42:22.160Z,42.92
2022-08-26T05:42:57.489Z,43.04
2022-08-26T05:43:33.494Z,42.81
2022-08-26T05:44:10.305Z,42.81
2022-08-26T05:44:55.796Z,43.08
2022-08-26T05:45:28.785Z,42.85
2022-08-26T05:46:09.551Z,43.20
2022-08-26T05:46:42.556Z,43.01
2022-08-26T05:47:19.053Z,43.14
2022-08-26T05:47:51.838Z,43.01
2022-08-26T05:48:26.887Z,42.89
2022-08-26T05:48:59.886Z,43.05
2022-08-26T05:49:35.070Z,43.22
2022-08-26T05:50:16.222Z,43.25
2022-08-26T05:50:50.143Z,43.22
2022-08-26T05:51:26.106Z,42.99
2022-08-26T05:51:58.638Z,42.87
2022-08-26T05:52:30.949Z,43.01
2022-08-26T05:53:05.937Z,43.38
2022-08-26T05:53:40.781Z,43.01
2022-08-26T05:54:21.894Z,43.08
2022-08-26T05:54:55.229Z,43.07
2022-08-26T05:55:27.718Z,42.89
2022-08-26T05:56:02.673Z,43.33
2022-08-26T05:56:34.950Z,43.20
2022-08-26T05:57:12.236Z,43.39
2022-08-26T05:57:44.786Z,43.14
2022-08-26T05:58:20.324Z,43.36
2022-08-26T05:58:59.786Z,43.21
2022-08-26T05:59:32.473Z,43.22
2022-08-26T06:00:06.188Z,43.05
2022-08-26T06:00:48.996Z,43.25
2022-08-26T06:01:25.729Z,43.06
2022-08-26T06:02:00.735Z,43.11
2022-08-26T06:02:33.117Z,43.06
2022-08-26T06:03:05.768Z,43.40
2022-08-26T06:03:42.622Z,43.37
2022-08-26T06:04:14.965Z,43.22
2022-08-26T06:04:47.525Z,43.56
2022-08-26T06:05:23.685Z,43.03
2022-08-26T06:05:56.180Z,43.39
2022-08-26T06:06:30.408Z,43.48
2022-08-26T06:07:05.461Z,43.40
2022-08-26T06:07:54.704Z,43.45
2022-08-26T06:08:27.600Z,43.44
2022-08-26T06:09:04.673Z,43.69
2022-08-26T06:09:37.197Z,43.48
2022-08-26T06:10:31.491Z,43.39
2022-08-26T06:11:17.160Z,43.73
2022-08-26T06:11:51.377Z,43.62
2022-08-26T06:12:26.410Z,43.48
2022-08-26T06:13:04.569Z,43.44
2022-08-26T06:13:46.430Z,43.82
2022-08-26T06:14:21.375Z,43.71
2022-08-26T06:14:55.143Z,43.98
2022-08-26T06:15:30.540Z,43.88
2022-08-26T06:16:05.579Z,43.78
2022-08-26T06:16:43.930Z,44.02
2022-08-26T06:17:16.773Z,43.88
2022-08-26T06:17:50.122Z,43.94
2022-08-26T06:18:28.874Z,43.63
2022-08-26T06:19:03.475Z,43.81
2022-08-26T06:19:45.889Z,43.65
2022-08-26T06:20:18.508Z,43.93
2022-08-26T06:20:57.285Z,44.00
2022-08-26T06:21:34.961Z,44.07
2022-08-26T06:22:27.452Z,44.01
2022-08-26T06:23:14.729Z,44.02
2022-08-26T06:24:03.865Z,43.94
2022-08-26T06:24:51.133Z,44.24
2022-08-26T06:25:38.843Z,43.93
2022-08-26T06:26:14.502Z,43.85
2022-08-26T06:26:50.521Z,43.88
2022-08-26T06:27:30.599Z,44.29
2022-08-26T06:28:05.481Z,44.13
2022-08-26T06:28:37.851Z,43.88
2022-08-26T06:29:12.822Z,44.25
2022-08-26T06:29:58.550Z,44.00
2022-08-26T06:30:30.895Z,44.20
2022-08-26T06:31:06.560Z,44.07
2022-08-26T06:31:39.985Z,44.04
2022-08-26T06:32:15.086Z,44.29
2022-08-26T06:32:47.430Z,44.15
2022-08-26T06:33:22.232Z,43.95
2022-08-26T06:33:58.401Z,44.32
2022-08-26T06:34:31.104Z,43.93
2022-08-26T06:35:03.729Z,44.04
2022-08-26T06:35:42.849Z,44.02
2022-08-26T06:36:19.501Z,44.04
2022-08-26T06:36:54.594Z,43.69
2022-08-26T06:37:27.159Z,44.02
2022-08-26T06:37:59.881Z,44.05
2022-08-26T06:38:34.778Z,44.10
2022-08-26T06:39:11.550Z,43.93
2022-08-26T06:39:44.069Z,44.36
2022-08-26T06:40:19.149Z,44.17
2022-08-26T06:40:54.887Z,43.95
2022-08-26T06:41:32.015Z,43.97
2022-08-26T06:42:06.332Z,44.14
2022-08-26T06:42:42.426Z,44.09
2022-08-26T06:43:17.369Z,43.80
2022-08-26T06:43:53.886Z,43.81
2022-08-26T06:44:26.940Z,43.93
2022-08-26T06:45:01.901Z,44.21
2022-08-26T06:45:38.537Z,44.05
2022-08-26T06:46:12.981Z,44.15
2022-08-26T06:46:50.217Z,44.05
2022-08-26T06:47:23.101Z,44.46
2022-08-26T06:47:57.223Z,44.24
2022-08-26T06:48:32.210Z,44.37
2022-08-26T06:49:04.986Z,44.25
2022-08-26T06:49:37.438Z,44.76
2022-08-26T06:50:12.763Z,44.36
2022-08-26T06:50:45.482Z,44.39
2022-08-26T06:51:23.693Z,44.48
2022-08-26T06:51:58.583Z,44.16
2022-08-26T06:52:33.852Z,44.39
2022-08-26T06:53:08.250Z,44.76
2022-08-26T06:53:45.712Z,44.75
2022-08-26T06:54:18.390Z,44.36
2022-08-26T06:54:50.729Z,44.63
2022-08-26T06:55:27.068Z,44.84
2022-08-26T06:55:59.524Z,44.66
2022-08-26T06:56:37.487Z,44.56
2022-08-26T06:57:09.883Z,45.07
2022-08-26T06:57:42.303Z,44.72
2022-08-26T06:58:17.563Z,44.84
2022-08-26T06:58:52.477Z,44.83
2022-08-26T06:59:28.418Z,44.93
2022-08-26T07:00:05.890Z,44.89
2022-08-26T07:00:39.666Z,44.83
2022-08-26T07:01:22.063Z,45.01
2022-08-26T07:01:55.035Z,45.04
2022-08-26T07:02:28.525Z,44.72
2022-08-26T07:03:03.704Z,45.13
2022-08-26T07:03:39.578Z,44.60
2022-08-26T07:04:22.045Z,45.03
2022-08-26T07:04:56.969Z,44.99
2022-08-26T07:05:29.390Z,45.33
2022-08-26T07:06:05.521Z,44.99
2022-08-26T07:06:41.300Z,45.03
2022-08-26T07:07:15.794Z,44.99
2022-08-26T07:07:52.577Z,45.07
2022-08-26T07:08:24.899Z,44.97
2022-08-26T07:09:05.130Z,45.11
2022-08-26T07:09:37.722Z,45.21
2022-08-26T07:10:11.747Z,45.19
2022-08-26T07:10:47.090Z,45.42
2022-08-26T07:11:20.137Z,45.04
2022-08-26T07:11:53.677Z,45.10
2022-08-26T07:12:28.710Z,45.18
2022-08-26T07:13:01.069Z,45.26
2022-08-26T07:13:37.725Z,45.25
2022-08-26T07:14:12.939Z,45.12
2022-08-26T07:14:47.522Z,44.93
2022-08-26T07:15:31.000Z,44.92
2022-08-26T07:16:05.052Z,45.30
2022-08-26T07:16:42.066Z,45.17
2022-08-26T07:17:14.748Z,45.19
2022-08-26T07:17:49.762Z,45.19
2022-08-26T07:18:22.121Z,44.99
2022-08-26T07:18:58.171Z,45.33
2022-08-26T07:19:31.779Z,45.23
2022-08-26T07:20:08.579Z,45.64
2022-08-26T07:20:42.280Z,45.47
2022-08-26T07:21:18.244Z,45.36
2022-08-26T07:21:53.639Z,45.36
2022-08-26T07:22:28.026Z,45.51
2022-08-26T07:23:03.668Z,45.47
2022-08-26T07:23:37.429Z,45.39
2022-08-26T07:24:15.721Z,45.18
2022-08-26T07:24:49.103Z,45.45
2022-08-26T07:25:21.526Z,45.37
2022-08-26T07:25:57.298Z,45.22
2022-08-26T07:26:30.941Z,45.45
2022-08-26T07:27:05.602Z,45.58
2022-08-26T07:27:41.465Z,45.59
2022-08-26T07:28:13.854Z,45.68
2022-08-26T07:28:47.390Z,45.47
2022-08-26T07:29:22.298Z,45.42
2022-08-26T07:29:57.977Z,45.24
2022-08-26T07:30:35.969Z,45.61
2022-08-26T07:31:09.774Z,45.58
2022-08-26T07:31:42.792Z,45.28
2022-08-26T07:32:18.586Z,45.52
2022-08-26T07:32:50.988Z,45.47
2022-08-26T07:33:25.901Z,45.25
2022-08-26T07:33:58.679Z,45.42
2022-08-26T07:34:35.662Z,45.64
2022-08-26T07:35:09.074Z,45.56
2022-08-26T07:35:44.653Z,45.69
2022-08-26T07:36:18.432Z,45.43
2022-08-26T07:36:50.827Z,45.73
2022-08-26T07:37:25.778Z,46.13